BTK6250 WIII-WALL
Flight info
| Callsign | BTK6250 |
|---|---|
| Flight time | 1h 49m |
| Altitude | 37000 |
| Route | EGUKO2A EGUKO T9 SILJA SILJA2A |
| Aircraft | B738/M-SDE2E3FGHIRWXY/LB1 |
Departure
| Time | 2026-04-21 07:43 |
|---|---|
| Airport | Soekarno-Hatta International Airport (WIII) |
Arrival
| Time | 2026-04-21 09:32 |
|---|---|
| Airport | Sultan Aji Muhammad Sulaiman Sepinggan International Airport (WALL) |
| Time | Latitude | Longitude | Altitude | Speed | Heading |
|---|---|---|---|---|---|
| 2026-04-21 07:27 | -6.12293 | 106.64855 | 47 ft | 0 kts | 140° |
| 2026-04-21 07:33 | -6.12289 | 106.64852 | 47 ft | 2 kts | 140° |
| 2026-04-21 07:33 | -6.12278 | 106.64843 | 47 ft | 2 kts | 140° |
| 2026-04-21 07:34 | -6.12265 | 106.64834 | 47 ft | 2 kts | 154° |
| 2026-04-21 07:34 | -6.12251 | 106.64829 | 47 ft | 2 kts | 167° |
| 2026-04-21 07:34 | -6.12236 | 106.64827 | 47 ft | 2 kts | 181° |
| 2026-04-21 07:34 | -6.12221 | 106.64829 | 47 ft | 2 kts | 195° |
| 2026-04-21 07:35 | -6.12207 | 106.64834 | 47 ft | 2 kts | 209° |
| 2026-04-21 07:35 | -6.12195 | 106.64842 | 47 ft | 2 kts | 223° |
| 2026-04-21 07:35 | -6.12185 | 106.64854 | 47 ft | 2 kts | 236° |
| 2026-04-21 07:35 | -6.12179 | 106.64864 | 46 ft | 0 kts | 246° |
| 2026-04-21 07:36 | -6.12177 | 106.64870 | 47 ft | 0 kts | 249° |
| 2026-04-21 07:38 | -6.12179 | 106.64864 | 46 ft | 2 kts | 249° |
| 2026-04-21 07:38 | -6.12187 | 106.64842 | 47 ft | 4 kts | 249° |
| 2026-04-21 07:38 | -6.12203 | 106.64799 | 46 ft | 8 kts | 256° |
| 2026-04-21 07:38 | -6.12189 | 106.64740 | 47 ft | 11 kts | 327° |
| 2026-04-21 07:39 | -6.12111 | 106.64708 | 47 ft | 12 kts | 339° |
| 2026-04-21 07:39 | -6.12033 | 106.64678 | 46 ft | 11 kts | 339° |
| 2026-04-21 07:39 | -6.12002 | 106.64619 | 46 ft | 10 kts | 258° |
| 2026-04-21 07:39 | -6.12027 | 106.64555 | 46 ft | 9 kts | 248° |
| 2026-04-21 07:40 | -6.12054 | 106.64490 | 46 ft | 11 kts | 248° |
| 2026-04-21 07:40 | -6.12090 | 106.64397 | 46 ft | 16 kts | 249° |
| 2026-04-21 07:40 | -6.12136 | 106.64278 | 46 ft | 20 kts | 246° |
| 2026-04-21 07:40 | -6.12194 | 106.64134 | 47 ft | 22 kts | 248° |
| 2026-04-21 07:41 | -6.12245 | 106.64005 | 47 ft | 12 kts | 248° |
| 2026-04-21 07:41 | -6.12253 | 106.63927 | 46 ft | 10 kts | 288° |
| 2026-04-21 07:41 | -6.12199 | 106.63882 | 47 ft | 9 kts | 352° |
| 2026-04-21 07:41 | -6.12136 | 106.63901 | 46 ft | 8 kts | 8° |
| 2026-04-21 07:42 | -6.12086 | 106.63923 | 46 ft | 8 kts | 64° |
| 2026-04-21 07:42 | -6.12065 | 106.63974 | 47 ft | 8 kts | 68° |
| 2026-04-21 07:42 | -6.11987 | 106.64164 | 47 ft | 63 kts | 67° |
| 2026-04-21 07:42 | -6.11738 | 106.64796 | 47 ft | 128 kts | 67° |
| 2026-04-21 07:43 | -6.11348 | 106.65816 | 95 ft | 175 kts | 66° |
| 2026-04-21 07:43 | -6.10905 | 106.67007 | 577 ft | 189 kts | 66° |
| 2026-04-21 07:43 | -6.10397 | 106.68212 | 1355 ft | 195 kts | 63° |
| 2026-04-21 07:43 | -6.09556 | 106.69315 | 2006 ft | 202 kts | 42° |
| 2026-04-21 07:44 | -6.08467 | 106.70271 | 2468 ft | 216 kts | 41° |
| 2026-04-21 07:44 | -6.07323 | 106.71343 | 2877 ft | 236 kts | 44° |
| 2026-04-21 07:44 | -6.06127 | 106.72548 | 3485 ft | 249 kts | 46° |
| 2026-04-21 07:44 | -6.04893 | 106.73820 | 4057 ft | 262 kts | 46° |
| 2026-04-21 07:45 | -6.03601 | 106.75153 | 4675 ft | 270 kts | 46° |
| 2026-04-21 07:45 | -6.02276 | 106.76515 | 4968 ft | 271 kts | 46° |
| 2026-04-21 07:45 | -6.00953 | 106.77872 | 5001 ft | 271 kts | 46° |
| 2026-04-21 07:45 | -5.99655 | 106.79201 | 4999 ft | 268 kts | 46° |
| 2026-04-21 07:46 | -5.98336 | 106.80550 | 4998 ft | 268 kts | 46° |
| 2026-04-21 07:46 | -5.97014 | 106.81904 | 5001 ft | 269 kts | 46° |
| 2026-04-21 07:46 | -5.95800 | 106.83332 | 5007 ft | 271 kts | 56° |
| 2026-04-21 07:46 | -5.94812 | 106.84991 | 5636 ft | 279 kts | 62° |
| 2026-04-21 07:47 | -5.93925 | 106.86677 | 6585 ft | 275 kts | 63° |
| 2026-04-21 07:47 | -5.93040 | 106.88371 | 7380 ft | 277 kts | 62° |
| 2026-04-21 07:47 | -5.92130 | 106.90077 | 8122 ft | 280 kts | 62° |
| 2026-04-21 07:47 | -5.91198 | 106.91795 | 8884 ft | 283 kts | 61° |
| 2026-04-21 07:48 | -5.90251 | 106.93527 | 9630 ft | 285 kts | 61° |
| 2026-04-21 07:48 | -5.89292 | 106.95275 | 10338 ft | 289 kts | 61° |
| 2026-04-21 07:48 | -5.88298 | 106.97084 | 10772 ft | 303 kts | 61° |
| 2026-04-21 07:48 | -5.87261 | 106.98970 | 11151 ft | 318 kts | 61° |
| 2026-04-21 07:49 | -5.86166 | 107.00960 | 11531 ft | 333 kts | 61° |
| 2026-04-21 07:49 | -5.85023 | 107.03038 | 12026 ft | 343 kts | 61° |
| 2026-04-21 07:49 | -5.83860 | 107.05151 | 12645 ft | 348 kts | 61° |
| 2026-04-21 07:49 | -5.82683 | 107.07288 | 12941 ft | 351 kts | 61° |
| 2026-04-21 07:50 | -5.81506 | 107.09428 | 12969 ft | 349 kts | 61° |
| 2026-04-21 07:50 | -5.80323 | 107.11575 | 12971 ft | 349 kts | 61° |
| 2026-04-21 07:50 | -5.79152 | 107.13702 | 12970 ft | 348 kts | 61° |
| 2026-04-21 07:50 | -5.77989 | 107.15810 | 12970 ft | 349 kts | 61° |
| 2026-04-21 07:51 | -5.76808 | 107.17954 | 12970 ft | 349 kts | 61° |
| 2026-04-21 07:51 | -5.75626 | 107.20098 | 12970 ft | 348 kts | 61° |
| 2026-04-21 07:51 | -5.74458 | 107.22217 | 12970 ft | 349 kts | 61° |
| 2026-04-21 07:51 | -5.73283 | 107.24348 | 12970 ft | 349 kts | 61° |
| 2026-04-21 07:52 | -5.72092 | 107.26511 | 13066 ft | 359 kts | 61° |
| 2026-04-21 07:52 | -5.70900 | 107.28679 | 13916 ft | 356 kts | 61° |
| 2026-04-21 07:52 | -5.69707 | 107.30849 | 14597 ft | 359 kts | 61° |
| 2026-04-21 07:52 | -5.68491 | 107.33060 | 15266 ft | 362 kts | 61° |
| 2026-04-21 07:53 | -5.67271 | 107.35278 | 15908 ft | 366 kts | 61° |
| 2026-04-21 07:53 | -5.66036 | 107.37522 | 16530 ft | 370 kts | 61° |
| 2026-04-21 07:53 | -5.64796 | 107.39777 | 17104 ft | 374 kts | 61° |
| 2026-04-21 07:53 | -5.63521 | 107.42092 | 17680 ft | 378 kts | 61° |
| 2026-04-21 07:54 | -5.62245 | 107.44411 | 18259 ft | 382 kts | 61° |
| 2026-04-21 07:54 | -5.60956 | 107.46751 | 18818 ft | 386 kts | 61° |
| 2026-04-21 07:54 | -5.59668 | 107.49091 | 19372 ft | 389 kts | 61° |
| 2026-04-21 07:54 | -5.58343 | 107.51495 | 19898 ft | 393 kts | 61° |
| 2026-04-21 07:55 | -5.57032 | 107.53873 | 20444 ft | 395 kts | 61° |
| 2026-04-21 07:55 | -5.55698 | 107.56293 | 20941 ft | 399 kts | 61° |
| 2026-04-21 07:55 | -5.54341 | 107.58753 | 21422 ft | 404 kts | 61° |
| 2026-04-21 07:55 | -5.52976 | 107.61231 | 21903 ft | 407 kts | 60° |
| 2026-04-21 07:56 | -5.51612 | 107.63704 | 22361 ft | 411 kts | 60° |
| 2026-04-21 07:56 | -5.50221 | 107.66228 | 22876 ft | 413 kts | 60° |
| 2026-04-21 07:56 | -5.48823 | 107.68764 | 23364 ft | 416 kts | 60° |
| 2026-04-21 07:56 | -5.47415 | 107.71317 | 23847 ft | 419 kts | 60° |
| 2026-04-21 07:57 | -5.46009 | 107.73868 | 24302 ft | 422 kts | 60° |
| 2026-04-21 07:57 | -5.44575 | 107.76469 | 24762 ft | 425 kts | 60° |
| 2026-04-21 07:57 | -5.43129 | 107.79050 | 25202 ft | 427 kts | 59° |
| 2026-04-21 07:57 | -5.41534 | 107.81591 | 25655 ft | 430 kts | 56° |
| 2026-04-21 07:58 | -5.39846 | 107.84057 | 26077 ft | 432 kts | 54° |
| 2026-04-21 07:58 | -5.38100 | 107.86513 | 26483 ft | 435 kts | 54° |
| 2026-04-21 07:58 | -5.36326 | 107.88976 | 26860 ft | 439 kts | 53° |
| 2026-04-21 07:58 | -5.34529 | 107.91472 | 27248 ft | 442 kts | 54° |
| 2026-04-21 07:59 | -5.32727 | 107.93986 | 27672 ft | 444 kts | 54° |
| 2026-04-21 07:59 | -5.30918 | 107.96523 | 28048 ft | 447 kts | 54° |
| 2026-04-21 07:59 | -5.29121 | 107.99057 | 28481 ft | 449 kts | 54° |
| 2026-04-21 07:59 | -5.27309 | 108.01622 | 28876 ft | 451 kts | 54° |
| 2026-04-21 08:00 | -5.25505 | 108.04180 | 29220 ft | 455 kts | 54° |
| 2026-04-21 08:00 | -5.23665 | 108.06797 | 29607 ft | 457 kts | 54° |
| 2026-04-21 08:00 | -5.21844 | 108.09387 | 30174 ft | 454 kts | 54° |
| 2026-04-21 08:00 | -5.20046 | 108.11948 | 30778 ft | 451 kts | 54° |
| 2026-04-21 08:01 | -5.18243 | 108.14517 | 31292 ft | 450 kts | 54° |
| 2026-04-21 08:01 | -5.16452 | 108.17069 | 31752 ft | 449 kts | 54° |
| 2026-04-21 08:01 | -5.14639 | 108.19652 | 32231 ft | 448 kts | 54° |
| 2026-04-21 08:02 | -5.11080 | 108.24722 | 33230 ft | 445 kts | 54° |
| 2026-04-21 08:02 | -5.09307 | 108.27249 | 33760 ft | 443 kts | 54° |
| 2026-04-21 08:02 | -5.07527 | 108.29784 | 34220 ft | 442 kts | 54° |
| 2026-04-21 08:02 | -5.05776 | 108.32277 | 34670 ft | 441 kts | 54° |
| 2026-04-21 08:03 | -5.03988 | 108.34824 | 35091 ft | 440 kts | 54° |
| 2026-04-21 08:03 | -5.02245 | 108.37305 | 35511 ft | 439 kts | 54° |
| 2026-04-21 08:03 | -5.00463 | 108.39841 | 35886 ft | 439 kts | 54° |
| 2026-04-21 08:03 | -4.98703 | 108.42347 | 36239 ft | 439 kts | 53° |
| 2026-04-21 08:04 | -4.96955 | 108.44835 | 36579 ft | 439 kts | 53° |
| 2026-04-21 08:04 | -4.95197 | 108.47339 | 36917 ft | 438 kts | 53° |
| 2026-04-21 08:04 | -4.93433 | 108.49850 | 36969 ft | 441 kts | 53° |
| 2026-04-21 08:05 | -4.89926 | 108.54841 | 36970 ft | 437 kts | 53° |
| 2026-04-21 08:05 | -4.86404 | 108.59853 | 36971 ft | 437 kts | 53° |
| 2026-04-21 08:06 | -4.82920 | 108.64810 | 36970 ft | 437 kts | 54° |
| 2026-04-21 08:06 | -4.79413 | 108.69799 | 36971 ft | 437 kts | 54° |
| 2026-04-21 08:07 | -4.75911 | 108.74780 | 36970 ft | 437 kts | 54° |
| 2026-04-21 08:07 | -4.72408 | 108.79787 | 36973 ft | 438 kts | 55° |
| 2026-04-21 08:08 | -4.69377 | 108.85081 | 36975 ft | 440 kts | 62° |
| 2026-04-21 08:08 | -4.66728 | 108.90588 | 36983 ft | 439 kts | 64° |
| 2026-04-21 08:09 | -4.64157 | 108.96128 | 36990 ft | 437 kts | 64° |
| 2026-04-21 08:09 | -4.61586 | 109.01636 | 36989 ft | 438 kts | 64° |
| 2026-04-21 08:10 | -4.58983 | 109.07160 | 36991 ft | 437 kts | 64° |
| 2026-04-21 08:10 | -4.56374 | 109.12664 | 36989 ft | 439 kts | 64° |
| 2026-04-21 08:11 | -4.53726 | 109.18233 | 36987 ft | 440 kts | 64° |
| 2026-04-21 08:11 | -4.51100 | 109.23749 | 36982 ft | 438 kts | 64° |
| 2026-04-21 08:12 | -4.48478 | 109.29255 | 36977 ft | 437 kts | 64° |
| 2026-04-21 08:12 | -4.45867 | 109.34736 | 36973 ft | 437 kts | 64° |
| 2026-04-21 08:13 | -4.43230 | 109.40273 | 36969 ft | 437 kts | 64° |
| 2026-04-21 08:13 | -4.40625 | 109.45740 | 36971 ft | 438 kts | 64° |
| 2026-04-21 08:14 | -4.37996 | 109.51253 | 36969 ft | 439 kts | 64° |
| 2026-04-21 08:14 | -4.35358 | 109.56786 | 36970 ft | 439 kts | 64° |
| 2026-04-21 08:15 | -4.32738 | 109.62280 | 36970 ft | 438 kts | 64° |
| 2026-04-21 08:15 | -4.30095 | 109.67821 | 36969 ft | 438 kts | 64° |
| 2026-04-21 08:16 | -4.27473 | 109.73315 | 36970 ft | 437 kts | 64° |
| 2026-04-21 08:16 | -4.24840 | 109.78834 | 36969 ft | 437 kts | 64° |
| 2026-04-21 08:17 | -4.22207 | 109.84350 | 36970 ft | 437 kts | 64° |
| 2026-04-21 08:17 | -4.19583 | 109.89845 | 36969 ft | 438 kts | 64° |
| 2026-04-21 08:18 | -4.16964 | 109.95330 | 36970 ft | 438 kts | 64° |
| 2026-04-21 08:18 | -4.14320 | 110.00866 | 36970 ft | 437 kts | 64° |
| 2026-04-21 08:19 | -4.11709 | 110.06329 | 36969 ft | 436 kts | 64° |
| 2026-04-21 08:19 | -4.09071 | 110.11850 | 36970 ft | 436 kts | 64° |
| 2026-04-21 08:20 | -4.06452 | 110.17331 | 36970 ft | 437 kts | 64° |
| 2026-04-21 08:20 | -4.03822 | 110.22832 | 36966 ft | 438 kts | 64° |
| 2026-04-21 08:21 | -4.01196 | 110.28323 | 36964 ft | 438 kts | 64° |
| 2026-04-21 08:21 | -3.98566 | 110.33824 | 36974 ft | 435 kts | 64° |
| 2026-04-21 08:22 | -3.95953 | 110.39286 | 36977 ft | 435 kts | 64° |
| 2026-04-21 08:22 | -3.93353 | 110.44720 | 36970 ft | 434 kts | 64° |
| 2026-04-21 08:23 | -3.90747 | 110.50166 | 36968 ft | 434 kts | 64° |
| 2026-04-21 08:23 | -3.88123 | 110.55645 | 36970 ft | 435 kts | 64° |
| 2026-04-21 08:24 | -3.85499 | 110.61127 | 36969 ft | 436 kts | 64° |
| 2026-04-21 08:24 | -3.82891 | 110.66572 | 36969 ft | 434 kts | 64° |
| 2026-04-21 08:25 | -3.80291 | 110.72002 | 36970 ft | 433 kts | 64° |
| 2026-04-21 08:25 | -3.77679 | 110.77454 | 36970 ft | 433 kts | 64° |
| 2026-04-21 08:26 | -3.75072 | 110.82895 | 36969 ft | 434 kts | 64° |
| 2026-04-21 08:26 | -3.72479 | 110.88306 | 36970 ft | 434 kts | 64° |
| 2026-04-21 08:27 | -3.69866 | 110.93755 | 36970 ft | 435 kts | 64° |
| 2026-04-21 08:27 | -3.67248 | 110.99217 | 36969 ft | 433 kts | 64° |
| 2026-04-21 08:28 | -3.64630 | 111.04676 | 36970 ft | 432 kts | 64° |
| 2026-04-21 08:28 | -3.62044 | 111.10066 | 36969 ft | 432 kts | 64° |
| 2026-04-21 08:29 | -3.59441 | 111.15493 | 36968 ft | 433 kts | 64° |
| 2026-04-21 08:29 | -3.56838 | 111.20918 | 36966 ft | 434 kts | 64° |
| 2026-04-21 08:30 | -3.54221 | 111.26373 | 36960 ft | 435 kts | 64° |
| 2026-04-21 08:30 | -3.51606 | 111.31821 | 36960 ft | 433 kts | 64° |
| 2026-04-21 08:31 | -3.48995 | 111.37261 | 36960 ft | 433 kts | 64° |
| 2026-04-21 08:31 | -3.46401 | 111.42663 | 36957 ft | 432 kts | 64° |
| 2026-04-21 08:32 | -3.43796 | 111.48089 | 36952 ft | 433 kts | 64° |
| 2026-04-21 08:32 | -3.41193 | 111.53507 | 36950 ft | 433 kts | 64° |
| 2026-04-21 08:33 | -3.38574 | 111.58958 | 36949 ft | 433 kts | 64° |
| 2026-04-21 08:33 | -3.35980 | 111.64358 | 36948 ft | 433 kts | 64° |
| 2026-04-21 08:34 | -3.33368 | 111.69791 | 36950 ft | 434 kts | 64° |
| 2026-04-21 08:34 | -3.30762 | 111.75215 | 36950 ft | 432 kts | 64° |
| 2026-04-21 08:35 | -3.28149 | 111.80650 | 36953 ft | 433 kts | 64° |
| 2026-04-21 08:35 | -3.25537 | 111.86083 | 36956 ft | 433 kts | 64° |
| 2026-04-21 08:36 | -3.22946 | 111.91472 | 36960 ft | 432 kts | 64° |
| 2026-04-21 08:36 | -3.20348 | 111.96875 | 36965 ft | 433 kts | 64° |
| 2026-04-21 08:37 | -3.17720 | 112.02338 | 36973 ft | 433 kts | 64° |
| 2026-04-21 08:37 | -3.15123 | 112.07737 | 36973 ft | 432 kts | 64° |
| 2026-04-21 08:38 | -3.12507 | 112.13171 | 36973 ft | 433 kts | 64° |
| 2026-04-21 08:38 | -3.09891 | 112.18608 | 36975 ft | 434 kts | 64° |
| 2026-04-21 08:39 | -3.07296 | 112.23999 | 36976 ft | 433 kts | 64° |
| 2026-04-21 08:39 | -3.04675 | 112.29442 | 36978 ft | 434 kts | 64° |
| 2026-04-21 08:40 | -3.02210 | 112.34911 | 36975 ft | 433 kts | 68° |
| 2026-04-21 08:40 | -3.00016 | 112.40527 | 36976 ft | 433 kts | 69° |
| 2026-04-21 08:41 | -2.97858 | 112.46179 | 36973 ft | 433 kts | 69° |
| 2026-04-21 08:41 | -2.95693 | 112.51786 | 36964 ft | 433 kts | 69° |
| 2026-04-21 08:42 | -2.93497 | 112.57403 | 36958 ft | 433 kts | 68° |
| 2026-04-21 08:42 | -2.91300 | 112.62985 | 36959 ft | 433 kts | 68° |
| 2026-04-21 08:43 | -2.89086 | 112.68592 | 36958 ft | 435 kts | 68° |
| 2026-04-21 08:43 | -2.86862 | 112.74218 | 36958 ft | 433 kts | 68° |
| 2026-04-21 08:44 | -2.84655 | 112.79800 | 36957 ft | 434 kts | 68° |
| 2026-04-21 08:44 | -2.82432 | 112.85421 | 36955 ft | 433 kts | 68° |
| 2026-04-21 08:45 | -2.80231 | 112.90984 | 36954 ft | 433 kts | 68° |
| 2026-04-21 08:45 | -2.78015 | 112.96582 | 36952 ft | 434 kts | 68° |
| 2026-04-21 08:46 | -2.75802 | 113.02174 | 36952 ft | 433 kts | 68° |
| 2026-04-21 08:46 | -2.73587 | 113.07770 | 36952 ft | 434 kts | 68° |
| 2026-04-21 08:47 | -2.71363 | 113.13387 | 36952 ft | 434 kts | 68° |
| 2026-04-21 08:47 | -2.69142 | 113.18997 | 36951 ft | 434 kts | 68° |
| 2026-04-21 08:48 | -2.66923 | 113.24601 | 36953 ft | 433 kts | 68° |
| 2026-04-21 08:48 | -2.64710 | 113.30189 | 36961 ft | 433 kts | 68° |
| 2026-04-21 08:49 | -2.62498 | 113.35775 | 36963 ft | 433 kts | 68° |
| 2026-04-21 08:49 | -2.60080 | 113.41307 | 36964 ft | 434 kts | 62° |
| 2026-04-21 08:50 | -2.56968 | 113.46466 | 36962 ft | 435 kts | 57° |
| 2026-04-21 08:50 | -2.53599 | 113.51489 | 36963 ft | 433 kts | 56° |
| 2026-04-21 08:51 | -2.50217 | 113.56495 | 36964 ft | 434 kts | 56° |
| 2026-04-21 08:51 | -2.46877 | 113.61498 | 36964 ft | 433 kts | 57° |
| 2026-04-21 08:52 | -2.43555 | 113.66516 | 36962 ft | 433 kts | 57° |
| 2026-04-21 08:52 | -2.40251 | 113.71531 | 36961 ft | 435 kts | 57° |
| 2026-04-21 08:53 | -2.36909 | 113.76611 | 36961 ft | 435 kts | 57° |
| 2026-04-21 08:53 | -2.33606 | 113.81634 | 36960 ft | 435 kts | 57° |
| 2026-04-21 08:54 | -2.30287 | 113.86682 | 36959 ft | 434 kts | 57° |
| 2026-04-21 08:54 | -2.26962 | 113.91740 | 36957 ft | 434 kts | 57° |
| 2026-04-21 08:55 | -2.23907 | 113.96940 | 36957 ft | 433 kts | 63° |
| 2026-04-21 08:55 | -2.21386 | 114.02414 | 36955 ft | 435 kts | 66° |
| 2026-04-21 08:56 | -2.19000 | 114.07968 | 36956 ft | 436 kts | 67° |
| 2026-04-21 08:56 | -2.16630 | 114.13490 | 36957 ft | 435 kts | 66° |
| 2026-04-21 08:57 | -2.14222 | 114.19048 | 36958 ft | 435 kts | 66° |
| 2026-04-21 08:57 | -2.11810 | 114.24577 | 36958 ft | 434 kts | 66° |
| 2026-04-21 08:58 | -2.09392 | 114.30096 | 36958 ft | 434 kts | 66° |
| 2026-04-21 08:58 | -2.06961 | 114.35634 | 36952 ft | 434 kts | 66° |
| 2026-04-21 08:59 | -2.04549 | 114.41125 | 36952 ft | 434 kts | 66° |
| 2026-04-21 08:59 | -2.02114 | 114.46668 | 36955 ft | 436 kts | 66° |
| 2026-04-21 09:00 | -1.99683 | 114.52200 | 36958 ft | 436 kts | 66° |
| 2026-04-21 09:00 | -1.97234 | 114.57772 | 36963 ft | 436 kts | 66° |
| 2026-04-21 09:01 | -1.94812 | 114.63285 | 36966 ft | 436 kts | 66° |
| 2026-04-21 09:01 | -1.92368 | 114.68845 | 36990 ft | 434 kts | 66° |
| 2026-04-21 09:02 | -1.89955 | 114.74333 | 36987 ft | 434 kts | 66° |
| 2026-04-21 09:02 | -1.87508 | 114.79898 | 36984 ft | 437 kts | 66° |
| 2026-04-21 09:03 | -1.83845 | 114.88230 | 36984 ft | 437 kts | 66° |
| 2026-04-21 09:03 | -1.81395 | 114.93803 | 36988 ft | 437 kts | 66° |
| 2026-04-21 09:04 | -1.78933 | 114.99400 | 36990 ft | 437 kts | 66° |
| 2026-04-21 09:04 | -1.77712 | 115.02177 | 36882 ft | 436 kts | 66° |
| 2026-04-21 09:04 | -1.76500 | 115.04932 | 36432 ft | 432 kts | 66° |
| 2026-04-21 09:05 | -1.75303 | 115.07655 | 35887 ft | 430 kts | 66° |
| 2026-04-21 09:05 | -1.74085 | 115.10424 | 35262 ft | 428 kts | 66° |
| 2026-04-21 09:05 | -1.72902 | 115.13115 | 34657 ft | 427 kts | 66° |
| 2026-04-21 09:05 | -1.71708 | 115.15831 | 34194 ft | 422 kts | 66° |
| 2026-04-21 09:06 | -1.70542 | 115.18483 | 33703 ft | 418 kts | 66° |
| 2026-04-21 09:06 | -1.69364 | 115.21162 | 33201 ft | 415 kts | 66° |
| 2026-04-21 09:06 | -1.68227 | 115.23789 | 32701 ft | 411 kts | 67° |
| 2026-04-21 09:06 | -1.67209 | 115.26435 | 32234 ft | 408 kts | 70° |
| 2026-04-21 09:07 | -1.66286 | 115.29082 | 31752 ft | 406 kts | 71° |
| 2026-04-21 09:07 | -1.65396 | 115.31741 | 31257 ft | 403 kts | 71° |
| 2026-04-21 09:07 | -1.64516 | 115.34388 | 30771 ft | 401 kts | 71° |
| 2026-04-21 09:07 | -1.63635 | 115.37023 | 30287 ft | 398 kts | 71° |
| 2026-04-21 09:08 | -1.62750 | 115.39646 | 29793 ft | 396 kts | 71° |
| 2026-04-21 09:08 | -1.61876 | 115.42217 | 29308 ft | 393 kts | 71° |
| 2026-04-21 09:08 | -1.60995 | 115.44788 | 28826 ft | 391 kts | 71° |
| 2026-04-21 09:08 | -1.60113 | 115.47347 | 28350 ft | 388 kts | 71° |
| 2026-04-21 09:09 | -1.59233 | 115.49890 | 27874 ft | 385 kts | 71° |
| 2026-04-21 09:09 | -1.58366 | 115.52391 | 27404 ft | 383 kts | 71° |
| 2026-04-21 09:09 | -1.57501 | 115.54883 | 26930 ft | 381 kts | 71° |
| 2026-04-21 09:09 | -1.56632 | 115.57386 | 26449 ft | 379 kts | 71° |
| 2026-04-21 09:10 | -1.55777 | 115.59847 | 25981 ft | 376 kts | 71° |
| 2026-04-21 09:10 | -1.54922 | 115.62303 | 25515 ft | 374 kts | 71° |
| 2026-04-21 09:10 | -1.54072 | 115.64746 | 25040 ft | 372 kts | 71° |
| 2026-04-21 09:10 | -1.53221 | 115.67192 | 24570 ft | 371 kts | 71° |
| 2026-04-21 09:11 | -1.52384 | 115.69600 | 24108 ft | 369 kts | 72° |
| 2026-04-21 09:11 | -1.51544 | 115.72012 | 23650 ft | 366 kts | 72° |
| 2026-04-21 09:11 | -1.50712 | 115.74403 | 23192 ft | 365 kts | 72° |
| 2026-04-21 09:11 | -1.49881 | 115.76792 | 22728 ft | 363 kts | 72° |
| 2026-04-21 09:12 | -1.49054 | 115.79170 | 22277 ft | 361 kts | 72° |
| 2026-04-21 09:12 | -1.48236 | 115.81520 | 21835 ft | 359 kts | 72° |
| 2026-04-21 09:12 | -1.47424 | 115.83856 | 21387 ft | 357 kts | 72° |
| 2026-04-21 09:12 | -1.46608 | 115.86202 | 20935 ft | 356 kts | 72° |
| 2026-04-21 09:13 | -1.45795 | 115.88538 | 20482 ft | 354 kts | 72° |
| 2026-04-21 09:13 | -1.44998 | 115.90830 | 20036 ft | 353 kts | 72° |
| 2026-04-21 09:13 | -1.44190 | 115.93150 | 19583 ft | 351 kts | 72° |
| 2026-04-21 09:13 | -1.43383 | 115.95471 | 19126 ft | 350 kts | 72° |
| 2026-04-21 09:14 | -1.42584 | 115.97765 | 18677 ft | 349 kts | 71° |
| 2026-04-21 09:14 | -1.41794 | 116.00036 | 18236 ft | 347 kts | 71° |
| 2026-04-21 09:14 | -1.41008 | 116.02296 | 17796 ft | 346 kts | 71° |
| 2026-04-21 09:14 | -1.40226 | 116.04543 | 17347 ft | 345 kts | 71° |
| 2026-04-21 09:15 | -1.39433 | 116.06822 | 16883 ft | 343 kts | 71° |
| 2026-04-21 09:15 | -1.38665 | 116.09026 | 16455 ft | 332 kts | 71° |
| 2026-04-21 09:15 | -1.37920 | 116.11164 | 16083 ft | 322 kts | 71° |
| 2026-04-21 09:15 | -1.37184 | 116.13284 | 16000 ft | 321 kts | 72° |
| 2026-04-21 09:16 | -1.36472 | 116.15359 | 15618 ft | 317 kts | 72° |
| 2026-04-21 09:16 | -1.35761 | 116.17454 | 14874 ft | 319 kts | 72° |
| 2026-04-21 09:16 | -1.35056 | 116.19531 | 14366 ft | 312 kts | 72° |
| 2026-04-21 09:16 | -1.34368 | 116.21555 | 13984 ft | 303 kts | 72° |
| 2026-04-21 09:17 | -1.33706 | 116.23496 | 13600 ft | 295 kts | 72° |
| 2026-04-21 09:17 | -1.33034 | 116.25471 | 13225 ft | 311 kts | 72° |
| 2026-04-21 09:17 | -1.32330 | 116.27534 | 13013 ft | 309 kts | 71° |
| 2026-04-21 09:17 | -1.31633 | 116.29539 | 12738 ft | 307 kts | 71° |
| 2026-04-21 09:18 | -1.30928 | 116.31525 | 12294 ft | 300 kts | 71° |
| 2026-04-21 09:18 | -1.30236 | 116.33460 | 11911 ft | 291 kts | 71° |
| 2026-04-21 09:18 | -1.29568 | 116.35331 | 11543 ft | 288 kts | 71° |
| 2026-04-21 09:18 | -1.28872 | 116.37288 | 11160 ft | 302 kts | 71° |
| 2026-04-21 09:19 | -1.28219 | 116.39272 | 10754 ft | 300 kts | 76° |
| 2026-04-21 09:19 | -1.27989 | 116.41291 | 10365 ft | 291 kts | 96° |
| 2026-04-21 09:19 | -1.28586 | 116.43182 | 10084 ft | 285 kts | 120° |
| 2026-04-21 09:19 | -1.29838 | 116.44703 | 9913 ft | 277 kts | 136° |
| 2026-04-21 09:20 | -1.31378 | 116.45863 | 9515 ft | 280 kts | 149° |
| 2026-04-21 09:20 | -1.33131 | 116.46717 | 9168 ft | 281 kts | 155° |
| 2026-04-21 09:20 | -1.34934 | 116.47462 | 8820 ft | 281 kts | 156° |
| 2026-04-21 09:20 | -1.36743 | 116.48206 | 8472 ft | 280 kts | 155° |
| 2026-04-21 09:21 | -1.38565 | 116.48985 | 8120 ft | 280 kts | 155° |
| 2026-04-21 09:21 | -1.40344 | 116.49754 | 7970 ft | 274 kts | 155° |
| 2026-04-21 09:21 | -1.42070 | 116.50482 | 7778 ft | 268 kts | 155° |
| 2026-04-21 09:21 | -1.43807 | 116.51209 | 7462 ft | 268 kts | 155° |
| 2026-04-21 09:22 | -1.45536 | 116.51935 | 7128 ft | 269 kts | 155° |
| 2026-04-21 09:22 | -1.47261 | 116.52661 | 6792 ft | 269 kts | 155° |
| 2026-04-21 09:22 | -1.48956 | 116.53476 | 6454 ft | 267 kts | 146° |
| 2026-04-21 09:22 | -1.50312 | 116.54711 | 6124 ft | 262 kts | 120° |
| 2026-04-21 09:23 | -1.50909 | 116.56387 | 6010 ft | 258 kts | 94° |
| 2026-04-21 09:23 | -1.50874 | 116.58173 | 5993 ft | 260 kts | 79° |
| 2026-04-21 09:23 | -1.50399 | 116.59934 | 5997 ft | 259 kts | 69° |
| 2026-04-21 09:23 | -1.49728 | 116.61607 | 5994 ft | 260 kts | 66° |
| 2026-04-21 09:24 | -1.49036 | 116.63258 | 5970 ft | 256 kts | 66° |
| 2026-04-21 09:24 | -1.48375 | 116.64892 | 5782 ft | 251 kts | 68° |
| 2026-04-21 09:24 | -1.47743 | 116.66512 | 5476 ft | 251 kts | 68° |
| 2026-04-21 09:24 | -1.47118 | 116.68141 | 5170 ft | 251 kts | 68° |
| 2026-04-21 09:25 | -1.46498 | 116.69768 | 4871 ft | 248 kts | 68° |
| 2026-04-21 09:25 | -1.45894 | 116.71327 | 4547 ft | 235 kts | 66° |
| 2026-04-21 09:25 | -1.45107 | 116.72692 | 4255 ft | 221 kts | 47° |
| 2026-04-21 09:25 | -1.43903 | 116.73528 | 4121 ft | 203 kts | 22° |
| 2026-04-21 09:26 | -1.42591 | 116.73869 | 4011 ft | 189 kts | 10° |
| 2026-04-21 09:26 | -1.41303 | 116.73885 | 3877 ft | 183 kts | 352° |
| 2026-04-21 09:26 | -1.40105 | 116.73475 | 3709 ft | 180 kts | 339° |
| 2026-04-21 09:26 | -1.38975 | 116.72970 | 3508 ft | 178 kts | 340° |
| 2026-04-21 09:27 | -1.37817 | 116.72477 | 3315 ft | 177 kts | 341° |
| 2026-04-21 09:27 | -1.36671 | 116.72073 | 3146 ft | 174 kts | 353° |
| 2026-04-21 09:27 | -1.35475 | 116.72189 | 2974 ft | 170 kts | 27° |
| 2026-04-21 09:27 | -1.34527 | 116.72879 | 2855 ft | 167 kts | 46° |
| 2026-04-21 09:28 | -1.33859 | 116.73834 | 2740 ft | 169 kts | 62° |
| 2026-04-21 09:28 | -1.33347 | 116.74889 | 2572 ft | 170 kts | 63° |
| 2026-04-21 09:28 | -1.32821 | 116.75940 | 2399 ft | 168 kts | 62° |
| 2026-04-21 09:28 | -1.32283 | 116.76970 | 2266 ft | 161 kts | 62° |
| 2026-04-21 09:29 | -1.31799 | 116.77897 | 2131 ft | 142 kts | 62° |
| 2026-04-21 09:29 | -1.31360 | 116.78766 | 1985 ft | 136 kts | 64° |
| 2026-04-21 09:29 | -1.30978 | 116.79636 | 1840 ft | 138 kts | 66° |
| 2026-04-21 09:29 | -1.30609 | 116.80517 | 1629 ft | 137 kts | 66° |
| 2026-04-21 09:30 | -1.30227 | 116.81417 | 1457 ft | 143 kts | 66° |
| 2026-04-21 09:30 | -1.29836 | 116.82335 | 1257 ft | 142 kts | 66° |
| 2026-04-21 09:30 | -1.29453 | 116.83241 | 1077 ft | 142 kts | 67° |
| 2026-04-21 09:30 | -1.29068 | 116.84162 | 891 ft | 142 kts | 67° |
| 2026-04-21 09:31 | -1.28679 | 116.85076 | 705 ft | 142 kts | 67° |
| 2026-04-21 09:31 | -1.28304 | 116.85985 | 543 ft | 142 kts | 68° |
| 2026-04-21 09:31 | -1.27923 | 116.86903 | 371 ft | 142 kts | 67° |
| 2026-04-21 09:31 | -1.27531 | 116.87807 | 191 ft | 141 kts | 66° |
| 2026-04-21 09:32 | -1.27157 | 116.88693 | 38 ft | 134 kts | 67° |
| 2026-04-21 09:32 | -1.26827 | 116.89463 | 28 ft | 101 kts | 67° |
| 2026-04-21 09:32 | -1.26622 | 116.89954 | 27 ft | 38 kts | 68° |
| 2026-04-21 09:32 | -1.26561 | 116.90089 | 27 ft | 10 kts | 52° |
| 2026-04-21 09:33 | -1.26501 | 116.90112 | 28 ft | 8 kts | 356° |
| 2026-04-21 09:33 | -1.26452 | 116.90098 | 29 ft | 6 kts | 339° |
| 2026-04-21 09:33 | -1.26418 | 116.90083 | 30 ft | 5 kts | 335° |
| 2026-04-21 09:33 | -1.26374 | 116.90066 | 31 ft | 8 kts | 338° |
| 2026-04-21 09:34 | -1.26327 | 116.90024 | 33 ft | 9 kts | 282° |
| 2026-04-21 09:34 | -1.26338 | 116.89960 | 34 ft | 8 kts | 275° |
| 2026-04-21 09:34 | -1.26321 | 116.89942 | 34 ft | 2 kts | 333° |
| 2026-04-21 09:34 | -1.26299 | 116.89932 | 35 ft | 3 kts | 336° |
| 2026-04-21 09:35 | -1.26287 | 116.89926 | 35 ft | 0 kts | 336° |